This is the latest recevied weather packets stored in our database for station/object KI6SYE. If no packets are shown the sender has not sent any weather packets the latest 10 day(s).
| Time | Temp. | Humidity | Pressure | Rain* | Wind** | Luminosity | Snow |
|---|---|---|---|---|---|---|---|
| 1788457657 | 22.22° C | 75% | 1014.2 hPa | 0 mm | - | 619 W/m² | - |
| 1788457353 | 22.78° C | 75% | 1014.3 hPa | 0 mm | - | 609 W/m² | - |
| 1788457048 | 22.78° C | 74% | 1014.3 hPa | 0 mm | - | 605 W/m² | - |
| 1788456743 | 22.78° C | 74% | 1014.4 hPa | 0 mm | - | 594 W/m² | - |
| 1788456438 | 22.22° C | 74% | 1014.7 hPa | 0 mm | - | 575 W/m² | - |
| 1788456133 | 22.78° C | 74% | 1014.4 hPa | 0 mm | - | 565 W/m² | - |
| 1788455828 | 22.78° C | 74% | 1014.4 hPa | 0 mm | - | 536 W/m² | - |
| 1788455525 | 22.22° C | 75% | 1014.5 hPa | 0 mm | - | 528 W/m² | - |
| 1788455223 | 22.78° C | 75% | 1014.3 hPa | 0 mm | - | 524 W/m² | - |
| 1788454940 | 22.22° C | 77% | 1014.3 hPa | 0 mm | - | 512 W/m² | - |
| 1788454615 | 22.22° C | 76% | 1014.4 hPa | 0 mm | - | 514 W/m² | - |
| 1788454311 | 22.22° C | 76% | 1014.3 hPa | 0 mm | - | 349 W/m² | - |
| 1788454006 | 22.78° C | 75% | 1014.2 hPa | 0 mm | - | 558 W/m² | - |
| 1788453702 | 23.33° C | 73% | 1014.4 hPa | 0 mm | - | 547 W/m² | - |
| 1788453410 | 22.78° C | 74% | 1014.4 hPa | 0 mm | - | 479 W/m² | - |
| 1788453098 | 23.89° C | 71% | 1014.3 hPa | 0 mm | - | 468 W/m² | - |
| 1788452794 | 23.89° C | 68% | 1014.3 hPa | 0 mm | - | 441 W/m² | - |
| 1788452490 | 23.89° C | 68% | 1014.3 hPa | 0 mm | - | 422 W/m² | - |
| 1788452190 | 23.89° C | 68% | 1014.1 hPa | 0 mm | - | 404 W/m² | - |
| 1788451886 | 23.33° C | 69% | 1014.2 hPa | 0 mm | - | 392 W/m² | - |
| 1788451581 | 22.78° C | 71% | 1014.3 hPa | 0 mm | - | 370 W/m² | - |
| 1788451275 | 22.78° C | 73% | 1014.4 hPa | 0 mm | - | 341 W/m² | - |
| 1788450974 | 22.78° C | 73% | 1014.3 hPa | 0 mm | - | 188 W/m² | - |
| 1788450669 | 22.78° C | 73% | 1014.2 hPa | 0 mm | - | 276 W/m² | - |
| 1788450365 | 22.22° C | 75% | 1014.2 hPa | 0 mm | - | 276 W/m² | - |
* Rain latest hour (hover to see other rain measurements)
** Current wind speed in m/s (hover to see current wind gust speed)